createdAt,value
2019-02-10T12:02:10.134Z,5.10
2019-02-10T12:04:38.264Z,5.90
2019-02-10T12:07:05.678Z,5.15
2019-02-10T12:09:32.980Z,5.42
2019-02-10T12:12:00.648Z,4.75
2019-02-10T12:14:28.091Z,5.30
2019-02-10T12:16:55.507Z,5.45
2019-02-10T12:19:22.917Z,5.00
2019-02-10T12:21:50.127Z,4.40
2019-02-10T12:24:17.530Z,5.85
2019-02-10T12:26:44.955Z,7.25
2019-02-10T12:29:12.356Z,5.00
2019-02-10T12:31:39.600Z,5.85
2019-02-10T12:34:08.130Z,5.47
2019-02-10T12:36:37.132Z,5.72
2019-02-10T12:39:06.741Z,5.33
2019-02-10T12:41:34.844Z,5.80
2019-02-10T12:44:03.194Z,6.20
2019-02-10T12:46:30.882Z,4.58
2019-02-10T12:48:58.182Z,4.83
2019-02-10T12:51:25.311Z,5.95
2019-02-10T12:53:52.743Z,4.83
2019-02-10T12:56:20.053Z,3.98
2019-02-10T12:58:47.499Z,4.20
2019-02-10T13:01:14.742Z,5.85
2019-02-10T13:03:42.262Z,5.65
2019-02-10T13:06:09.618Z,6.62
2019-02-10T13:08:37.051Z,5.33
2019-02-10T13:11:06.082Z,5.22
2019-02-10T13:13:33.483Z,6.30
2019-02-10T13:16:00.914Z,6.62
2019-02-10T13:18:28.339Z,5.05
2019-02-10T13:20:56.860Z,5.05
2019-02-10T13:23:24.287Z,6.33
2019-02-10T13:25:51.770Z,4.60
2019-02-10T13:28:19.182Z,6.17
2019-02-10T13:30:46.379Z,4.70
2019-02-10T13:33:13.747Z,5.10
2019-02-10T13:35:41.279Z,6.90
2019-02-10T13:38:08.685Z,4.17
2019-02-10T13:40:36.214Z,5.30
2019-02-10T13:43:03.587Z,5.65
2019-02-10T13:45:30.839Z,6.15
2019-02-10T13:47:58.253Z,5.77
2019-02-10T13:50:25.447Z,5.33
2019-02-10T13:52:52.775Z,7.97
2019-02-10T13:55:20.771Z,7.62
2019-02-10T13:57:50.047Z,5.55
2019-02-10T14:00:19.387Z,4.67
2019-02-10T14:02:47.458Z,4.40
2019-02-10T14:05:14.938Z,5.22
2019-02-10T14:07:42.341Z,5.40
2019-02-10T14:10:11.172Z,5.03
2019-02-10T14:12:38.554Z,4.50
2019-02-10T14:15:07.691Z,5.83
2019-02-10T14:17:35.018Z,5.53
2019-02-10T14:20:02.331Z,9.20
2019-02-10T14:22:29.504Z,5.03
2019-02-10T14:24:56.723Z,4.58
2019-02-10T14:27:24.113Z,5.58
2019-02-10T14:29:51.307Z,4.13
2019-02-10T14:32:18.499Z,5.47
2019-02-10T14:34:45.916Z,4.55
2019-02-10T14:37:13.299Z,5.40
2019-02-10T14:39:40.507Z,5.95
2019-02-10T14:42:07.733Z,7.55
2019-02-10T14:44:35.171Z,5.40
2019-02-10T14:47:02.455Z,4.45
2019-02-10T14:49:29.882Z,3.47
2019-02-10T14:51:57.279Z,5.25
2019-02-10T14:54:24.635Z,8.28
2019-02-10T14:56:52.178Z,4.30
2019-02-10T14:59:19.463Z,3.33
2019-02-10T15:01:46.823Z,1.70
2019-02-10T15:04:14.286Z,2.37
2019-02-10T15:06:41.701Z,3.37
2019-02-10T15:09:09.907Z,5.03
2019-02-10T15:11:37.122Z,4.30
2019-02-10T15:14:04.553Z,4.45
2019-02-10T15:16:31.941Z,3.87
2019-02-10T15:18:59.404Z,3.50
2019-02-10T15:21:26.839Z,3.12
2019-02-10T15:23:54.056Z,2.22
2019-02-10T15:26:21.451Z,3.95
2019-02-10T15:28:48.635Z,2.40
2019-02-10T15:31:15.863Z,1.75
2019-02-10T15:33:43.278Z,4.05
2019-02-10T15:36:10.683Z,1.90
2019-02-10T15:38:38.117Z,2.90
2019-02-10T15:41:06.534Z,2.33
2019-02-10T15:43:35.062Z,2.33
2019-02-10T15:46:02.391Z,2.90
2019-02-10T15:48:29.739Z,2.98
2019-02-10T15:50:56.968Z,2.52
2019-02-10T15:53:24.358Z,1.85
2019-02-10T15:55:51.779Z,2.35
2019-02-10T15:58:19.221Z,1.95
2019-02-10T16:00:46.551Z,4.78
2019-02-10T16:03:13.914Z,3.42
2019-02-10T16:05:41.117Z,3.90
2019-02-10T16:08:08.526Z,4.72
2019-02-10T16:10:35.975Z,2.90
2019-02-10T16:13:03.156Z,4.05
2019-02-10T16:15:30.586Z,3.43
2019-02-10T16:17:57.939Z,2.90
2019-02-10T16:20:25.440Z,1.80
2019-02-10T16:22:52.926Z,3.35
2019-02-10T16:25:20.243Z,2.72
2019-02-10T16:27:47.529Z,2.83
2019-02-10T16:30:14.967Z,2.17
2019-02-10T16:32:49.579Z,1.10
2019-02-10T16:35:11.670Z,1.75
2019-02-10T16:37:40.943Z,1.90
2019-02-10T16:40:10.953Z,1.30
2019-02-10T16:42:38.146Z,1.00
2019-02-10T16:45:06.581Z,2.20
2019-02-10T16:47:33.894Z,1.17
2019-02-10T16:50:01.362Z,1.60
2019-02-10T16:52:28.798Z,1.50
2019-02-10T16:54:56.013Z,1.10
2019-02-10T16:57:23.431Z,1.98
2019-02-10T16:59:50.674Z,2.05
2019-02-10T17:02:18.039Z,0.68
2019-02-10T17:04:45.540Z,1.05
2019-02-10T17:07:12.751Z,1.57
2019-02-10T17:09:40.170Z,0.88
2019-02-10T17:12:07.627Z,1.90
2019-02-10T17:14:36.019Z,1.10
2019-02-10T17:17:03.346Z,1.15
2019-02-10T17:19:30.682Z,1.82
2019-02-10T17:21:58.026Z,1.45
2019-02-10T17:24:25.494Z,1.00
2019-02-10T17:26:54.795Z,0.90
2019-02-10T17:29:22.223Z,1.30
2019-02-10T17:31:49.674Z,0.80
2019-02-10T17:34:17.221Z,2.08
2019-02-10T17:36:44.652Z,2.33
2019-02-10T17:39:15.367Z,0.80
2019-02-10T17:41:44.884Z,1.40
2019-02-10T17:44:12.242Z,1.15
2019-02-10T17:46:39.526Z,1.20
2019-02-10T17:49:06.927Z,0.80
2019-02-10T17:51:34.191Z,1.12
2019-02-10T17:54:01.476Z,0.90
2019-02-10T17:56:29.040Z,1.57
2019-02-10T17:58:56.390Z,1.25
2019-02-10T18:01:23.799Z,1.52
2019-02-10T18:03:51.131Z,0.62
2019-02-10T18:06:18.343Z,1.83
2019-02-10T18:08:45.794Z,1.15
2019-02-10T18:11:13.243Z,1.85
2019-02-10T18:13:40.484Z,1.75
2019-02-10T18:16:21.040Z,1.85
2019-02-10T18:19:07.121Z,2.37
2019-02-10T18:21:41.346Z,1.90
2019-02-10T18:24:16.312Z,1.15
2019-02-10T18:27:18.634Z,2.62
2019-02-10T18:30:11.523Z,2.53
2019-02-10T18:32:57.150Z,1.22
2019-02-10T18:35:50.125Z,2.00
2019-02-10T18:38:40.218Z,1.40
2019-02-10T18:41:16.707Z,2.83
2019-02-10T18:44:06.370Z,1.17
2019-02-10T18:46:46.555Z,1.13
2019-02-10T18:49:20.405Z,3.80
2019-02-10T18:51:53.250Z,1.95
2019-02-10T18:54:27.674Z,5.03
2019-02-10T18:57:20.376Z,4.60
2019-02-10T19:00:13.197Z,2.35
2019-02-10T19:02:54.709Z,1.62
2019-02-10T19:05:28.681Z,1.22
2019-02-10T19:08:24.583Z,1.42
2019-02-10T19:11:14.422Z,1.10
2019-02-10T19:13:50.145Z,2.12
2019-02-10T19:16:22.991Z,4.22
2019-02-10T19:19:08.692Z,4.58
2019-02-10T19:21:58.529Z,4.43
2019-02-10T19:24:33.639Z,4.90
2019-02-10T19:27:19.347Z,5.80
2019-02-10T19:30:06.406Z,3.92
2019-02-10T19:32:43.800Z,1.25
2019-02-10T19:35:28.936Z,1.10
2019-02-10T19:38:33.895Z,2.10
2019-02-10T19:41:08.256Z,1.32
2019-02-10T19:43:53.579Z,1.12
2019-02-10T19:46:38.978Z,1.60
2019-02-10T19:49:31.627Z,2.22
2019-02-10T19:52:24.540Z,1.35
2019-02-10T19:55:11.482Z,1.77
2019-02-10T19:57:57.066Z,2.52
2019-02-10T20:00:33.375Z,3.55
2019-02-10T20:03:11.458Z,1.75
2019-02-10T20:06:01.155Z,2.47
2019-02-10T20:08:42.514Z,2.00
2019-02-10T20:11:24.749Z,1.77
2019-02-10T20:13:59.979Z,1.82
2019-02-10T20:16:36.348Z,1.72
2019-02-10T20:19:25.916Z,1.40
2019-02-10T20:22:10.391Z,1.80
2019-02-10T20:24:57.140Z,1.80
2019-02-10T20:27:42.443Z,1.50
2019-02-10T20:30:21.099Z,2.77
2019-02-10T20:33:04.698Z,3.15
2019-02-10T20:35:41.379Z,2.42
2019-02-10T20:38:21.933Z,3.43
2019-02-10T20:41:09.056Z,2.27
2019-02-10T20:43:41.246Z,1.65
2019-02-10T20:46:28.883Z,1.40
2019-02-10T20:49:14.215Z,1.95
2019-02-10T20:51:53.703Z,1.40
2019-02-10T20:54:39.559Z,3.08
2019-02-10T20:57:19.037Z,1.50
2019-02-10T20:59:56.626Z,2.42
2019-02-10T21:02:43.434Z,1.35
2019-02-10T21:05:28.788Z,3.85
2019-02-10T21:08:18.250Z,1.80
2019-02-10T21:11:10.747Z,1.90
2019-02-10T21:14:00.523Z,2.80
2019-02-10T21:16:47.351Z,2.37
2019-02-10T21:19:29.599Z,2.30
2019-02-10T21:22:15.407Z,2.27
2019-02-10T21:25:11.486Z,2.62
2019-02-10T21:27:58.315Z,1.72
2019-02-10T21:30:47.719Z,2.00
2019-02-10T21:33:32.698Z,2.03
2019-02-10T21:36:09.566Z,2.40
2019-02-10T21:38:56.339Z,2.92
2019-02-10T21:41:33.751Z,1.70
2019-02-10T21:44:17.601Z,1.25
2019-02-10T21:47:07.451Z,2.30
2019-02-10T21:49:34.807Z,1.57
2019-02-10T21:52:02.501Z,1.77
2019-02-10T21:54:29.702Z,2.30
2019-02-10T21:56:57.123Z,1.77
2019-02-10T21:59:24.587Z,1.70
2019-02-10T22:01:53.838Z,1.52
2019-02-10T22:04:21.071Z,1.65
2019-02-10T22:06:49.331Z,1.72
2019-02-10T22:09:16.563Z,2.27
2019-02-10T22:11:43.979Z,2.02
2019-02-10T22:14:11.299Z,1.72
2019-02-10T22:16:38.702Z,1.50
2019-02-10T22:19:05.906Z,2.00
2019-02-10T22:21:33.087Z,1.80
2019-02-10T22:24:00.567Z,1.67
2019-02-10T22:26:27.771Z,10.68
2019-02-10T22:28:55.187Z,2.72
2019-02-10T22:31:22.391Z,3.12
2019-02-10T22:33:51.600Z,2.22
2019-02-10T22:36:18.670Z,2.02
2019-02-10T22:38:45.888Z,1.95
2019-02-10T22:41:13.280Z,1.52
2019-02-10T22:43:40.575Z,1.50
2019-02-10T22:46:07.995Z,0.90
2019-02-10T22:48:35.379Z,1.45
2019-02-10T22:51:02.571Z,1.22
2019-02-10T22:53:29.746Z,1.90
2019-02-10T22:55:57.429Z,0.87
2019-02-10T22:58:24.582Z,1.57
2019-02-10T23:01:00.767Z,1.30
2019-02-10T23:03:27.983Z,1.30
2019-02-10T23:05:55.400Z,1.00
2019-02-10T23:08:22.773Z,1.65
2019-02-10T23:10:51.906Z,1.42
2019-02-10T23:13:19.268Z,0.98
2019-02-10T23:15:46.571Z,1.00
2019-02-10T23:18:13.762Z,1.10
2019-02-10T23:20:40.966Z,0.88
2019-02-10T23:23:10.532Z,1.50
2019-02-10T23:25:37.648Z,0.80
2019-02-10T23:28:04.867Z,0.80
2019-02-10T23:30:32.074Z,0.73
2019-02-10T23:32:59.488Z,1.00
2019-02-10T23:35:26.703Z,0.80
2019-02-10T23:37:53.891Z,1.42
2019-02-10T23:40:21.326Z,1.20
2019-02-10T23:42:48.507Z,1.55
2019-02-10T23:45:15.858Z,1.20
2019-02-10T23:47:43.019Z,1.55
2019-02-10T23:50:10.353Z,1.30
2019-02-10T23:52:37.536Z,1.98
2019-02-10T23:55:04.779Z,1.95
2019-02-10T23:57:32.094Z,1.17
2019-02-10T23:59:59.395Z,1.42
